Clear Sky Current Weather (METAR) For Amsterdam Schiphol Airport

All times on the weather descriptions are local

Observed at 11:25 - (5 mins ago)

Clear Sky

21°C

Clear Sky
Clouds:
Wind: 120° at 07 knots
Visibility: Greater than 10km
QNH: 1013
Dew Point: 17°C
Runways with a headwind: Runway 06, Runway 09, Runways 18L/C/R

Sunrise Today: 07:17
Sunset Today: 19:52

Forecast Weather (TAF) For Amsterdam Schiphol Airport

Issued at 02:00 - (13 days ago)


Runways with a headwind: Unable to determine, wind is clam

Forecast valid until 02:00 on Tuesday

METAR/TAF RAW METAR / TAF

EHAM 170925Z 12007KT CAVOK 21/17 Q1013 NOSIG

Weather Widget

Put weather from any of our airports on your website with our weather widget.

Find Another Search

Airport Search


Please Wait Please Wait - Loading
Close
Close

Login

Username:

Password:

Remember Me:

Remember me on this computer

Forgotten your password? Get a reset password sent to your registered e-mail address

Close

User Private Message

Subject:

Message: